createdAt,value
2019-05-30T00:01:25.802Z,99.80
2019-05-30T00:03:56.033Z,99.90
2019-05-30T00:06:26.101Z,99.90
2019-05-30T00:08:56.345Z,99.90
2019-05-30T00:11:26.300Z,99.90
2019-05-30T00:13:56.718Z,99.90
2019-05-30T00:16:26.704Z,99.90
2019-05-30T00:18:56.672Z,99.90
2019-05-30T00:21:26.686Z,99.90
2019-05-30T00:23:57.787Z,99.90
2019-05-30T00:26:27.709Z,99.90
2019-05-30T00:28:58.191Z,99.90
2019-05-30T00:31:28.099Z,99.90
2019-05-30T00:33:57.904Z,99.90
2019-05-30T00:36:27.713Z,99.90
2019-05-30T00:38:57.731Z,99.90
2019-05-30T00:41:27.600Z,99.90
2019-05-30T00:43:57.849Z,99.90
2019-05-30T00:46:27.856Z,99.90
2019-05-30T00:48:58.241Z,99.90
2019-05-30T00:51:28.077Z,99.90
2019-05-30T00:53:58.575Z,99.90
2019-05-30T00:56:28.419Z,99.90
2019-05-30T00:58:58.706Z,99.90
2019-05-30T01:01:28.880Z,99.90
2019-05-30T01:03:58.772Z,99.90
2019-05-30T01:06:28.694Z,99.90
2019-05-30T01:08:59.057Z,99.90
2019-05-30T01:11:28.969Z,99.90
2019-05-30T01:13:59.028Z,99.90
2019-05-30T01:16:28.881Z,99.90
2019-05-30T01:18:59.059Z,99.90
2019-05-30T01:21:29.034Z,99.90
2019-05-30T01:23:59.315Z,99.90
2019-05-30T01:26:29.133Z,99.90
2019-05-30T01:28:59.422Z,99.90
2019-05-30T01:31:29.260Z,99.90
2019-05-30T01:33:59.502Z,99.90
2019-05-30T01:36:29.365Z,99.90
2019-05-30T01:38:59.632Z,99.90
2019-05-30T01:41:29.570Z,99.90
2019-05-30T01:43:59.799Z,99.90
2019-05-30T01:46:29.734Z,99.90
2019-05-30T01:49:00.218Z,99.90
2019-05-30T01:51:30.204Z,99.90
2019-05-30T01:54:00.522Z,99.90
2019-05-30T01:56:30.573Z,99.90
2019-05-30T01:59:00.627Z,99.90
2019-05-30T02:01:30.657Z,99.90
2019-05-30T02:04:01.130Z,99.90
2019-05-30T02:06:31.054Z,99.90
2019-05-30T02:09:01.178Z,99.90
2019-05-30T02:11:31.021Z,99.90
2019-05-30T02:14:01.602Z,99.90
2019-05-30T02:16:31.521Z,99.90
2019-05-30T02:19:01.666Z,99.90
2019-05-30T02:21:31.561Z,99.90
2019-05-30T02:24:01.833Z,99.90
2019-05-30T02:26:31.701Z,99.90
2019-05-30T02:29:01.970Z,99.90
2019-05-30T02:31:39.204Z,99.90
2019-05-30T02:34:05.302Z,99.90
2019-05-30T02:36:35.889Z,99.90
2019-05-30T02:39:07.990Z,99.90
2019-05-30T02:41:39.079Z,99.90
2019-05-30T02:44:10.306Z,99.90
2019-05-30T02:46:40.710Z,99.90
2019-05-30T02:51:41.546Z,99.90
2019-05-30T02:54:13.090Z,99.90
2019-05-30T02:56:43.168Z,99.90
2019-05-30T02:59:13.776Z,99.90
2019-05-30T03:01:59.951Z,99.90
2019-05-30T03:04:15.421Z,99.90
2019-05-30T03:06:45.383Z,99.90
2019-05-30T03:09:15.442Z,99.90
2019-05-30T03:11:45.390Z,99.90
2019-05-30T03:14:19.550Z,99.90
2019-05-30T03:16:46.876Z,99.90
2019-05-30T03:19:16.699Z,99.90
2019-05-30T03:21:46.579Z,99.90
2019-05-30T03:24:16.470Z,99.90
2019-05-30T03:26:46.406Z,99.90
2019-05-30T03:29:16.324Z,99.90
2019-05-30T03:31:47.467Z,99.90
2019-05-30T03:34:26.951Z,99.90
2019-05-30T03:36:49.409Z,99.90
2019-05-30T03:39:19.354Z,99.90
2019-05-30T03:41:49.307Z,99.90
2019-05-30T03:44:19.552Z,99.90
2019-05-30T03:46:52.502Z,99.90
2019-05-30T03:49:25.925Z,99.90
2019-05-30T03:51:58.686Z,99.90
2019-05-30T03:54:28.633Z,99.90
2019-05-30T03:57:06.963Z,99.90
2019-05-30T03:59:42.855Z,99.90
2019-05-30T04:02:54.627Z,99.90
2019-05-30T04:05:09.654Z,99.90
2019-05-30T04:07:45.463Z,99.90
2019-05-30T04:10:19.687Z,99.90
2019-05-30T04:15:31.851Z,99.90
2019-05-30T04:20:31.037Z,99.70
2019-05-30T04:23:01.165Z,99.20
2019-05-30T04:25:31.108Z,99.10
2019-05-30T04:28:00.910Z,98.60
2019-05-30T04:30:30.862Z,98.40
2019-05-30T04:33:16.940Z,98.10
2019-05-30T04:35:32.154Z,98.00
2019-05-30T04:38:01.934Z,97.50
2019-05-30T04:40:31.806Z,97.70
2019-05-30T04:43:01.841Z,97.60
2019-05-30T04:45:31.782Z,97.40
2019-05-30T04:48:01.565Z,97.50
2019-05-30T04:50:31.701Z,97.60
2019-05-30T04:53:01.497Z,97.00
2019-05-30T05:00:29.860Z,96.80
2019-05-30T05:02:59.649Z,96.70
2019-05-30T05:05:29.444Z,96.80
2019-05-30T05:07:59.252Z,96.70
2019-05-30T05:10:29.113Z,95.30
2019-05-30T05:12:59.171Z,95.50
2019-05-30T05:15:29.121Z,95.70
2019-05-30T05:17:58.989Z,95.60
2019-05-30T05:20:28.802Z,95.10
2019-05-30T05:22:58.660Z,95.00
2019-05-30T05:25:28.457Z,94.80
2019-05-30T05:27:58.252Z,95.10
2019-05-30T05:30:28.296Z,94.50
2019-05-30T05:32:58.088Z,94.70
2019-05-30T05:35:27.966Z,94.90
2019-05-30T05:37:57.825Z,95.30
2019-05-30T05:40:28.511Z,94.80
2019-05-30T05:42:58.465Z,95.10
2019-05-30T05:45:28.844Z,94.60
2019-05-30T05:47:58.647Z,94.30
2019-05-30T05:50:28.749Z,94.60
2019-05-30T05:52:58.623Z,94.40
2019-05-30T05:55:29.131Z,94.30
2019-05-30T05:57:59.253Z,94.50
2019-05-30T06:00:29.574Z,94.40
2019-05-30T06:02:59.518Z,94.40
2019-05-30T06:05:29.400Z,94.50
2019-05-30T06:07:59.290Z,94.60
2019-05-30T06:10:29.170Z,95.00
2019-05-30T06:12:58.969Z,94.90
2019-05-30T06:15:29.059Z,94.70
2019-05-30T06:17:59.101Z,94.30
2019-05-30T06:20:28.900Z,93.70
2019-05-30T06:22:58.717Z,93.90
2019-05-30T06:25:32.523Z,93.60
2019-05-30T06:28:00.328Z,93.30
2019-05-30T06:30:30.351Z,93.20
2019-05-30T06:33:00.225Z,92.90
2019-05-30T06:35:30.093Z,92.80
2019-05-30T06:37:59.893Z,93.10
2019-05-30T06:40:30.929Z,93.00
2019-05-30T06:43:01.365Z,93.10
2019-05-30T06:45:31.316Z,92.60
2019-05-30T06:48:01.122Z,92.90
2019-05-30T06:50:31.004Z,92.20
2019-05-30T06:53:00.785Z,92.20
2019-05-30T06:55:31.436Z,92.00
2019-05-30T06:58:01.332Z,91.70
2019-05-30T07:00:32.936Z,91.80
2019-05-30T07:03:02.975Z,92.00
2019-05-30T07:05:34.368Z,92.10
2019-05-30T07:08:04.466Z,92.10
2019-05-30T07:10:34.341Z,92.00
2019-05-30T07:13:04.306Z,92.10
2019-05-30T07:15:34.495Z,91.90
2019-05-30T07:18:04.581Z,91.70
2019-05-30T07:20:34.525Z,92.10
2019-05-30T07:23:04.528Z,91.30
2019-05-30T07:30:34.178Z,90.80
2019-05-30T07:33:06.420Z,91.20
2019-05-30T07:35:36.305Z,90.50
2019-05-30T07:38:06.514Z,90.90
2019-05-30T07:40:36.307Z,90.00
2019-05-30T07:43:06.279Z,90.20
2019-05-30T07:45:36.155Z,90.60
2019-05-30T07:48:06.119Z,90.80
2019-05-30T07:50:35.925Z,91.00
2019-05-30T07:53:05.869Z,90.00
2019-05-30T07:55:35.744Z,89.90
2019-05-30T07:58:05.724Z,89.10
2019-05-30T08:00:35.712Z,88.90
2019-05-30T08:03:05.691Z,89.90
2019-05-30T08:05:35.495Z,89.80
2019-05-30T08:08:05.366Z,88.90
2019-05-30T08:10:36.081Z,88.10
2019-05-30T08:13:05.990Z,88.70
2019-05-30T08:15:38.779Z,88.80
2019-05-30T08:18:07.497Z,88.30
2019-05-30T08:20:38.074Z,88.50
2019-05-30T08:23:09.919Z,89.30
2019-05-30T08:28:08.716Z,88.50
2019-05-30T08:30:38.784Z,88.90
2019-05-30T08:33:08.609Z,89.70
2019-05-30T08:35:47.741Z,89.70
2019-05-30T08:38:09.893Z,89.80
2019-05-30T08:40:39.781Z,87.20
2019-05-30T08:43:09.556Z,86.90
2019-05-30T08:45:39.991Z,86.50
2019-05-30T08:48:09.876Z,87.10
2019-05-30T08:50:43.123Z,84.90
2019-05-30T08:53:11.174Z,85.30
2019-05-30T08:55:40.991Z,85.50
2019-05-30T08:58:10.791Z,86.10
2019-05-30T09:00:40.604Z,86.20
2019-05-30T09:03:10.544Z,86.90
2019-05-30T09:05:58.132Z,85.30
2019-05-30T09:08:11.995Z,85.30
2019-05-30T09:10:42.659Z,84.60
2019-05-30T09:15:43.027Z,85.50
2019-05-30T09:18:12.980Z,83.20
2019-05-30T09:20:45.703Z,84.50
2019-05-30T09:23:15.897Z,83.60
2019-05-30T09:25:48.260Z,83.60
2019-05-30T09:28:17.618Z,83.20
2019-05-30T09:30:48.502Z,83.40
2019-05-30T09:35:48.981Z,82.80
2019-05-30T09:38:19.248Z,82.60
2019-05-30T09:40:51.009Z,80.40
2019-05-30T09:43:20.932Z,80.80
2019-05-30T09:48:20.107Z,77.40
2019-05-30T09:50:51.045Z,78.90
2019-05-30T09:55:51.585Z,80.50
2019-05-30T09:58:21.585Z,80.40
2019-05-30T10:15:48.832Z,80.30
2019-05-30T10:23:19.374Z,81.00
2019-05-30T10:25:49.561Z,81.60
2019-05-30T10:28:19.561Z,81.60
2019-05-30T10:33:20.899Z,82.60
2019-05-30T10:35:51.748Z,83.10
2019-05-30T10:38:22.030Z,84.00
2019-05-30T10:40:52.302Z,83.40
2019-05-30T10:43:22.329Z,84.10
2019-05-30T10:45:53.378Z,84.60
2019-05-30T10:48:23.360Z,84.40
2019-05-30T10:50:54.380Z,84.20
2019-05-30T10:53:24.590Z,84.40
2019-05-30T10:55:54.951Z,84.90
2019-05-30T11:00:57.742Z,85.70
2019-05-30T11:03:28.164Z,85.00
2019-05-30T11:06:12.349Z,85.30
2019-05-30T11:08:43.753Z,87.30
2019-05-30T11:11:13.714Z,88.70
2019-05-30T11:13:43.547Z,89.40
2019-05-30T11:16:13.645Z,89.10
2019-05-30T11:18:43.453Z,89.30
2019-05-30T11:21:13.561Z,90.00
2019-05-30T11:26:13.017Z,89.80
2019-05-30T11:28:42.904Z,89.70
2019-05-30T11:31:12.817Z,89.70
2019-05-30T11:33:42.760Z,88.80
2019-05-30T11:36:12.572Z,90.20
2019-05-30T11:41:11.681Z,90.60
2019-05-30T11:43:41.496Z,89.30
2019-05-30T11:48:40.538Z,91.40
2019-05-30T11:51:10.695Z,91.60
2019-05-30T11:53:42.265Z,91.90
2019-05-30T11:56:12.177Z,91.60
2019-05-30T11:58:41.973Z,91.50
2019-05-30T12:01:11.786Z,89.40
2019-05-30T12:03:41.864Z,86.00
2019-05-30T12:06:11.742Z,86.40
2019-05-30T12:08:41.720Z,86.50
2019-05-30T12:11:13.005Z,87.20
2019-05-30T12:16:12.461Z,86.80
2019-05-30T12:18:42.326Z,87.30
2019-05-30T12:21:12.148Z,87.90
2019-05-30T12:23:42.203Z,88.10
2019-05-30T12:28:41.316Z,88.90
2019-05-30T12:31:11.153Z,90.20
2019-05-30T12:33:41.173Z,90.80
2019-05-30T12:36:10.989Z,91.50
2019-05-30T12:38:40.778Z,92.30
2019-05-30T12:41:10.581Z,92.90
2019-05-30T12:43:40.390Z,93.50
2019-05-30T12:46:10.524Z,94.10
2019-05-30T12:51:09.630Z,94.40
2019-05-30T12:53:39.768Z,94.50
2019-05-30T12:56:09.590Z,94.60
2019-05-30T12:58:39.375Z,94.30
2019-05-30T13:01:09.216Z,94.00
2019-05-30T13:03:39.027Z,93.50
2019-05-30T13:06:09.060Z,93.30
2019-05-30T13:08:39.354Z,93.30
2019-05-30T13:11:09.410Z,93.10
2019-05-30T13:13:39.236Z,92.40
2019-05-30T13:16:09.252Z,92.20
2019-05-30T13:18:39.158Z,90.80
2019-05-30T13:21:09.340Z,90.80
2019-05-30T13:23:39.374Z,90.40
2019-05-30T13:26:09.779Z,89.80
2019-05-30T13:28:39.949Z,90.20
2019-05-30T13:31:10.072Z,90.20
2019-05-30T13:33:39.894Z,90.80
2019-05-30T13:36:09.709Z,91.60
2019-05-30T13:38:39.581Z,92.20
2019-05-30T13:43:39.010Z,92.70
2019-05-30T13:46:09.010Z,92.90
2019-05-30T13:48:39.134Z,93.30
2019-05-30T13:51:09.109Z,93.70
2019-05-30T13:53:39.080Z,94.30
2019-05-30T13:56:09.845Z,94.50
2019-05-30T13:58:40.035Z,95.30
2019-05-30T14:01:13.535Z,95.50
2019-05-30T14:03:41.445Z,95.90
2019-05-30T14:08:42.143Z,96.40
2019-05-30T14:11:12.104Z,96.70
2019-05-30T14:13:41.944Z,96.80
2019-05-30T14:16:11.741Z,96.70
2019-05-30T14:18:41.820Z,96.90
2019-05-30T14:21:11.664Z,97.30
2019-05-30T14:23:41.728Z,97.50
2019-05-30T14:26:11.686Z,97.60
2019-05-30T14:28:41.728Z,97.70
2019-05-30T14:31:13.108Z,97.90
2019-05-30T14:33:43.422Z,97.90
2019-05-30T14:36:14.777Z,98.10
2019-05-30T14:38:57.903Z,98.40
2019-05-30T14:41:16.468Z,98.20
2019-05-30T14:43:46.273Z,98.30
2019-05-30T14:51:17.139Z,98.50
2019-05-30T14:53:47.077Z,98.50
2019-05-30T14:56:17.538Z,97.20
2019-05-30T14:58:47.587Z,97.70
2019-05-30T15:01:17.587Z,97.50
2019-05-30T15:03:47.538Z,97.50
2019-05-30T15:06:17.883Z,97.20
2019-05-30T15:08:48.277Z,97.40
2019-05-30T15:11:18.093Z,97.50
2019-05-30T15:13:47.896Z,97.70
2019-05-30T15:16:17.709Z,98.10
2019-05-30T15:21:16.743Z,98.20
2019-05-30T15:23:46.632Z,98.60
2019-05-30T15:26:16.520Z,99.10
2019-05-30T15:31:16.624Z,99.70
2019-05-30T15:36:16.970Z,99.90
2019-05-30T15:38:47.272Z,99.90
2019-05-30T15:41:17.370Z,99.90
2019-05-30T15:43:47.330Z,99.90
2019-05-30T15:46:18.073Z,99.90
2019-05-30T15:48:47.957Z,99.90
2019-05-30T15:51:18.845Z,99.90
2019-05-30T15:53:48.689Z,99.60
2019-05-30T15:56:19.456Z,99.70
2019-05-30T15:58:49.354Z,99.00
2019-05-30T16:01:20.148Z,98.90
2019-05-30T16:03:50.017Z,98.50
2019-05-30T16:06:20.776Z,98.20
2019-05-30T16:08:50.750Z,98.20
2019-05-30T16:11:21.266Z,98.10
2019-05-30T16:13:51.299Z,97.90
2019-05-30T16:16:36.053Z,97.70
2019-05-30T16:18:52.633Z,97.50
2019-05-30T16:21:22.503Z,97.70
2019-05-30T16:23:52.302Z,97.40
2019-05-30T16:26:22.184Z,97.50
2019-05-30T16:28:52.054Z,97.30
2019-05-30T16:31:22.407Z,97.10
2019-05-30T16:33:52.417Z,97.50
2019-05-30T16:36:22.572Z,97.10
2019-05-30T16:38:52.608Z,97.60
2019-05-30T16:41:22.687Z,97.30
2019-05-30T16:43:52.626Z,97.10
2019-05-30T16:46:22.793Z,96.00
2019-05-30T16:48:52.673Z,95.30
2019-05-30T16:51:23.552Z,95.10
2019-05-30T16:53:53.596Z,95.50
2019-05-30T16:56:24.269Z,95.70
2019-05-30T16:58:55.421Z,95.90
2019-05-30T17:01:26.042Z,96.00
2019-05-30T17:03:55.980Z,96.10
2019-05-30T17:08:55.984Z,96.30
2019-05-30T17:11:25.776Z,96.40
2019-05-30T17:13:55.652Z,96.40
2019-05-30T17:16:26.272Z,96.30
2019-05-30T17:18:56.111Z,96.30
2019-05-30T17:21:26.812Z,96.60
2019-05-30T17:26:27.392Z,96.60
2019-05-30T17:28:57.374Z,96.60
2019-05-30T17:31:28.700Z,96.80
2019-05-30T17:36:28.473Z,97.20
2019-05-30T17:38:58.548Z,97.30
2019-05-30T17:41:29.015Z,97.50
2019-05-30T17:43:59.172Z,97.80
2019-05-30T17:46:30.088Z,97.80
2019-05-30T17:49:00.305Z,97.80
2019-05-30T17:51:30.176Z,98.00
2019-05-30T17:54:00.006Z,98.30
2019-05-30T17:56:30.246Z,98.30
2019-05-30T18:01:30.513Z,98.70
2019-05-30T18:04:00.425Z,98.90
2019-05-30T18:06:30.820Z,99.60
2019-05-30T18:11:31.096Z,99.40
2019-05-30T18:14:01.030Z,99.60
2019-05-30T18:19:01.233Z,99.90
2019-05-30T18:21:31.836Z,99.90
2019-05-30T18:24:01.993Z,99.90
2019-05-30T18:26:32.048Z,99.90
2019-05-30T18:29:01.882Z,99.90
2019-05-30T18:34:02.214Z,99.90
2019-05-30T18:36:32.668Z,99.90
2019-05-30T18:39:02.729Z,99.90
2019-05-30T18:41:32.878Z,99.90
2019-05-30T18:44:02.705Z,99.90
2019-05-30T18:46:33.352Z,99.90
2019-05-30T18:49:03.312Z,99.90
2019-05-30T18:51:33.112Z,99.90
2019-05-30T18:54:03.169Z,99.90
2019-05-30T18:56:32.993Z,99.90
2019-05-30T18:59:02.788Z,99.90
2019-05-30T19:04:04.047Z,99.90
2019-05-30T19:06:34.184Z,99.90
2019-05-30T19:09:05.657Z,99.90
2019-05-30T19:11:36.955Z,99.90
2019-05-30T19:14:07.175Z,99.90
2019-05-30T19:16:37.195Z,99.90
2019-05-30T19:19:07.108Z,99.90
2019-05-30T19:21:36.941Z,99.90
2019-05-30T19:24:06.812Z,99.90
2019-05-30T19:29:06.671Z,99.90
2019-05-30T19:31:36.971Z,99.90
2019-05-30T19:34:07.088Z,99.90
2019-05-30T19:36:37.325Z,99.90
2019-05-30T19:39:07.493Z,99.90
2019-05-30T19:41:52.586Z,99.90
2019-05-30T19:44:09.076Z,99.90
2019-05-30T19:46:38.886Z,99.90
2019-05-30T19:49:08.676Z,99.90
2019-05-30T19:51:39.214Z,99.90
2019-05-30T19:54:09.168Z,99.90
2019-05-30T19:56:41.886Z,99.90
2019-05-30T19:59:11.064Z,99.90
2019-05-30T20:01:41.032Z,99.90
2019-05-30T20:04:10.848Z,99.90
2019-05-30T20:06:40.947Z,99.90
2019-05-30T20:09:10.939Z,99.90
2019-05-30T20:11:41.549Z,99.90
2019-05-30T20:14:11.532Z,99.90
2019-05-30T20:16:42.007Z,99.90
2019-05-30T20:21:42.001Z,99.90
2019-05-30T20:24:12.001Z,99.90
2019-05-30T20:26:42.771Z,99.90
2019-05-30T20:29:12.948Z,99.90
2019-05-30T20:31:43.621Z,99.90
2019-05-30T20:34:13.879Z,99.90
2019-05-30T20:36:43.809Z,99.90
2019-05-30T20:39:13.613Z,99.90
2019-05-30T20:41:43.420Z,99.90
2019-05-30T20:44:13.253Z,99.90
2019-05-30T20:46:43.324Z,99.90
2019-05-30T20:49:13.147Z,99.90
2019-05-30T20:51:43.415Z,99.90
2019-05-30T20:54:13.581Z,99.90
2019-05-30T20:56:44.833Z,99.90
2019-05-30T20:59:15.279Z,99.90
2019-05-30T21:01:45.936Z,99.90
2019-05-30T21:04:16.157Z,99.90
2019-05-30T21:14:17.745Z,99.90
2019-05-30T21:16:50.783Z,99.90
2019-05-30T21:19:20.999Z,99.90
2019-05-30T21:21:50.930Z,99.90
2019-05-30T21:24:23.846Z,99.90
2019-05-30T21:31:52.326Z,99.90
2019-05-30T21:34:22.234Z,99.90
2019-05-30T21:36:52.400Z,99.90
2019-05-30T21:39:22.327Z,99.90
2019-05-30T21:41:53.764Z,99.90
2019-05-30T21:44:23.923Z,99.90
2019-05-30T21:49:23.164Z,99.90
2019-05-30T21:51:53.373Z,99.90
2019-05-30T21:56:52.594Z,99.90
2019-05-30T21:59:22.414Z,99.90
2019-05-30T22:01:57.033Z,99.90
2019-05-30T22:04:23.935Z,99.90
2019-05-30T22:06:53.873Z,99.90
2019-05-30T22:09:24.126Z,99.90
2019-05-30T22:11:54.248Z,99.90
2019-05-30T22:14:24.058Z,99.90
2019-05-30T22:16:53.861Z,99.90
2019-05-30T22:19:23.681Z,99.90
2019-05-30T22:21:53.789Z,99.90
2019-05-30T22:24:25.429Z,99.90
2019-05-30T22:27:00.121Z,99.90
2019-05-30T22:29:30.173Z,99.90
2019-05-30T22:31:59.996Z,99.90
2019-05-30T22:34:29.888Z,99.90
2019-05-30T22:36:59.709Z,99.90
2019-05-30T22:39:29.542Z,99.90
2019-05-30T22:41:59.536Z,99.90
2019-05-30T22:44:29.470Z,99.90
2019-05-30T22:46:59.560Z,99.90
2019-05-30T22:49:29.552Z,99.90
2019-05-30T22:51:59.412Z,99.90
2019-05-30T22:57:01.359Z,99.90
2019-05-30T22:59:30.001Z,99.90
2019-05-30T23:01:59.810Z,99.90
2019-05-30T23:04:29.604Z,99.90
2019-05-30T23:09:28.772Z,99.90
2019-05-30T23:11:58.665Z,99.90
2019-05-30T23:14:28.818Z,99.90
2019-05-30T23:16:58.732Z,99.90
2019-05-30T23:19:28.594Z,99.90
2019-05-30T23:21:58.481Z,99.90
2019-05-30T23:24:28.290Z,99.90
2019-05-30T23:26:58.104Z,99.90
2019-05-30T23:29:27.904Z,99.90
2019-05-30T23:31:58.319Z,99.90
2019-05-30T23:34:28.214Z,99.90
2019-05-30T23:36:58.783Z,99.90
2019-05-30T23:39:28.661Z,99.90
2019-05-30T23:41:59.354Z,99.90
2019-05-30T23:44:29.361Z,99.90
2019-05-30T23:46:59.775Z,99.90
2019-05-30T23:49:29.637Z,99.90
2019-05-30T23:52:00.316Z,99.90
2019-05-30T23:54:30.377Z,99.90
2019-05-30T23:57:00.794Z,99.90
2019-05-30T23:59:30.756Z,99.90
